Latest Coastal Weather Observations for Lake Macquarie - Cooranbong

IDN60701

Issued at 12:15 pm EDT Saturday 29 November 2014 (issued every 10 minutes, with the page automatically refreshed every 10 minutes)

About coastal observations | Map of coastal stations | Coastal observations for NSW | Marine services | Other Formats
Station Details ID: 061412 Name: LAKE MACQUARIE AWS Lat: -33.09 Lon: 151.46 Height: 6.0 m
Data from the previous 72 hours. | See also: Recent months at Lake Macquarie - Cooranbong
Date/Time
EDT
Temp

°C
Wind Pressure Rain
since 9am
mm
Weather Cloud Vis
km
Sea
Height
m
Swell
Dir
 
Speed
knots
Gust
knots
hPa Trend Height
m
Period
s
Dir
29/12:00pm 26.1 E 3 9 1017.6 - 0.0 - - - - - - -
29/11:30am 25.4 E 3 7 1018.0 - 0.0 - - - - - - -
29/11:00am 24.4 NE 3 6 1018.4 - 0.0 - - - - - - -
29/10:30am 24.4 ESE 3 6 1018.8 - 0.0 - - - - - - -
29/10:00am 22.9 N 3 6 1019.1 - 0.0 - - - - - - -
29/09:30am 22.6 WNW 1 3 1019.4 - 0.0 - - - - - - -
29/09:00am 21.2 W 1 3 1019.5 - 0.0 - - - - - - -
29/08:30am 20.3 N 3 6 1019.6 - 0.0 - - - - - - -
29/08:00am 18.8 CALM 0 0 1019.6 - 0.0 - - - - - - -
29/07:30am 16.4 CALM 0 0 1019.6 - 0.0 - - - - - - -
29/07:00am 14.5 CALM 0 0 1019.5 - 0.0 - - - - - - -
29/06:30am 12.6 CALM 0 0 1019.5 - 0.0 - - - - - - -
29/06:00am 12.1 CALM 0 0 1019.4 - 0.0 - - - - - - -
29/05:30am 12.3 CALM 0 0 1019.2 - 0.0 - - - - - - -
29/05:00am 12.5 CALM 0 0 1018.9 - 0.0 - - - - - - -
29/04:30am 12.9 CALM 0 0 1018.8 - 0.0 - - - - - - -
29/04:00am 12.7 CALM 0 0 1018.9 - 0.0 - - - - - - -
29/03:30am 13.2 CALM 0 0 1019.0 - 0.0 - - - - - - -
29/03:00am 13.2 CALM 0 0 1019.1 - 0.0 - - - - - - -
29/02:30am 14.0 CALM 0 0 1019.4 - 0.0 - - - - - - -
29/02:00am 14.4 CALM 0 1 1019.5 - 0.0 - - - - - - -
29/01:30am 14.8 CALM 0 0 1020.0 - 0.0 - - - - - - -
29/01:00am 14.7 CALM 0 0 1020.3 - 0.0 - - - - - - -
29/12:30am 14.8 CALM 0 0 1020.4 - 0.0 - - - - - - -
29/12:00am 15.2 CALM 0 0 1020.6 - 0.0 - - - - - - -
 
Date/Time
EDT
Temp

°C
Wind Pressure Rain
since 9am
mm
Weather Cloud Vis
km
Sea
Height
m
Swell
Dir
 
Speed
knots
Gust
knots
hPa Trend Height
m
Period
s
Dir
28/11:30pm 14.8 CALM 0 0 1020.7 - 0.0 - - - - - - -
28/11:00pm 15.4 CALM 0 0 1020.8 - 0.0 - - - - - - -
28/10:30pm 15.5 CALM 0 0 1021.0 - 0.0 - - - - - - -
28/10:00pm 15.4 CALM 0 0 1020.9 - 0.0 - - - - - - -
28/09:30pm 15.8 NW 1 2 1020.8 - 0.0 - - - - - - -
28/09:00pm 17.6 NE 1 2 1020.6 - 0.0 - - - - - - -
28/08:30pm 18.4 NNE 1 2 1020.6 - 0.0 - - - - - - -
28/08:00pm 18.9 ENE 2 5 1020.6 - 0.0 - - - - - - -
28/07:30pm 19.7 ENE 2 6 1020.6 - 0.0 - - - - - - -
28/07:00pm 20.6 ENE 3 8 1020.6 - 0.0 - - - - - - -
28/06:30pm 21.3 E 6 11 1020.5 - 0.0 - - - - - - -
28/06:00pm 21.1 E 7 12 1020.4 - 0.0 - - - - - - -
28/05:30pm 21.5 E 7 13 1020.3 - 0.0 - - - - - - -
28/05:00pm 21.3 ENE 7 11 1020.5 - 0.0 - - - - - - -
28/04:30pm 21.2 ENE 6 10 1020.8 - 0.0 - - - - - - -
28/04:00pm 22.5 E 7 11 1020.9 - 0.0 - - - - - - -
28/03:30pm 21.5 E 8 11 1021.2 - 0.0 - - - - - - -
28/03:00pm 21.9 E 6 13 1021.5 - 0.0 - - - - - - -
28/02:30pm 22.0 ENE 5 9 1021.8 - 0.0 - - - - - - -
28/02:00pm 22.6 E 4 8 1022.1 - 0.0 - - - - - - -
28/01:30pm 21.7 ENE 5 9 1022.5 - 0.0 - - - - - - -
28/01:00pm 21.2 E 6 9 1023.0 - 0.0 - - - - - - -
28/12:30pm 21.2 SSE 4 9 1023.4 - 0.0 - - - - - - -
28/12:00pm 20.3 E 3 5 1023.8 - 0.0 - - - - - - -
28/11:30am 20.3 ESE 3 5 1024.0 - 0.0 - - - - - - -
28/11:00am 20.4 ESE 3 5 1024.0 - 0.0 - - - - - - -
28/10:30am 20.1 ESE 4 6 1024.0 - 0.0 - - - - - - -
28/10:00am 19.8 ESE 3 5 1024.0 - 0.0 - - - - - - -
28/09:30am 19.8 S 2 4 1023.9 - 0.0 - - - - - - -
28/09:00am 19.4 CALM 0 2 1023.8 - 3.2 - - - - - - -
28/08:30am 18.4 SW 1 3 1023.7 - 3.2 - - - - - - -
28/08:00am 17.6 CALM 0 0 1023.4 - 3.2 - - - - - - -
28/07:30am 17.3 CALM 0 0 1023.1 - 3.2 - - - - - - -
28/07:00am 17.0 CALM 0 0 1022.7 - 3.2 - - - - - - -
28/06:30am 16.9 CALM 0 0 1022.5 - 3.2 - - - - - - -
28/06:00am 16.7 CALM 0 0 1022.3 - 3.2 - - - - - - -
28/05:30am 16.5 SW 1 2 1022.0 - 3.2 - - - - - - -
28/05:00am 16.6 CALM 0 0 1021.9 - 3.2 - - - - - - -
28/04:30am 16.8 CALM 0 0 1021.9 - 3.2 - - - - - - -
28/04:00am 16.8 CALM 0 0 1021.9 - 3.2 - - - - - - -
28/03:30am 16.8 CALM 0 0 1022.0 - 3.2 - - - - - - -
28/03:00am 17.0 CALM 0 0 1022.3 - 3.2 - - - - - - -
28/02:30am 17.0 CALM 0 0 1022.4 - 3.2 - - - - - - -
28/02:00am 17.1 CALM 0 0 1022.5 - 3.2 - - - - - - -
28/01:30am 17.3 CALM 0 0 1022.8 - 3.2 - - - - - - -
28/01:00am 17.7 CALM 0 0 1023.2 - 3.2 - - - - - - -
28/12:30am 17.8 CALM 0 1 1023.4 - 3.2 - - - - - - -
28/12:00am 18.0 SW 1 1 1023.6 - 3.2 - - - - - - -
 
Date/Time
EDT
Temp

°C
Wind Pressure Rain
since 9am
mm
Weather Cloud Vis
km
Sea
Height
m
Swell
Dir
 
Speed
knots
Gust
knots
hPa Trend Height
m
Period
s
Dir
27/11:30pm 18.5 SSW 2 3 1023.8 - 3.2 - - - - - - -
27/11:00pm 18.8 SE 1 3 1023.9 - 3.2 - - - - - - -
27/10:30pm 19.0 SE 2 5 1024.0 - 3.2 - - - - - - -
27/10:00pm 19.0 SE 3 7 1023.9 - 3.2 - - - - - - -
27/09:30pm 19.0 ESE 3 4 1023.9 - 3.2 - - - - - - -
27/09:00pm 19.0 SE 4 7 1023.7 - 3.2 - - - - - - -
27/08:30pm 19.0 ESE 4 6 1023.5 - 3.2 - - - - - - -
27/08:00pm 19.1 SE 3 6 1023.4 - 3.2 - - - - - - -
27/07:30pm 19.1 SE 3 7 1023.1 - 3.2 - - - - - - -
27/07:00pm 19.2 SE 5 12 1022.7 - 3.2 - - - - - - -
27/06:30pm 19.5 SSE 4 8 1022.3 - 3.2 - - - - - - -
27/06:00pm 19.4 SSE 4 10 1022.0 - 3.2 - - - - - - -
27/05:30pm 19.5 SSE 4 10 1021.9 - 3.2 - - - - - - -
27/05:00pm 19.4 SSE 5 9 1021.9 - 3.2 - - - - - - -
27/04:30pm 18.7 S 3 8 1022.0 - 3.2 - - - - - - -
27/04:00pm 18.3 S 3 6 1022.0 - 3.2 - - - - - - -
27/03:30pm 18.4 SE 4 8 1022.0 - 3.0 - - - - - - -
27/03:00pm 19.1 SE 1 6 1021.9 - 0.8 Recent precip. - - - - - -
27/02:30pm 19.1 SE 3 6 1021.9 - 0.6 - - - - - - -
27/02:00pm 20.8 SSE 4 8 1021.8 - 0.0 - - - - - - -
27/01:30pm 20.6 ESE 7 10 1021.7 - 0.0 - - - - - - -
27/01:00pm 20.8 SE 5 11 1021.6 - 0.0 - - - - - - -
27/12:30pm 20.5 SE 6 13 1021.7 - 0.0 - - - - - - -
27/12:00pm 21.2 ESE 6 12 1021.6 - 0.0 - - - - - - -
27/11:30am 21.3 ESE 8 14 1021.6 - 0.0 - - - - - - -
27/11:00am 21.5 ESE 9 13 1021.5 - 0.0 - - - - - - -
27/10:30am 22.0 ESE 6 10 1021.3 - 0.0 - - - - - - -
27/10:00am 21.5 SSE 7 13 1021.3 - 0.0 - - - - - - -
27/09:30am 21.3 SE 6 12 1021.2 - 0.0 - - - - - - -
27/09:00am 20.5 SSE 6 13 1021.3 - 0.0 - - - - - - -
27/08:30am 20.4 SE 6 16 1020.9 - 0.0 - - - - - - -
27/08:00am 20.4 SSE 6 13 1020.5 - 0.0 - - - - - - -
27/07:30am 20.1 SSE 6 12 1020.2 - 0.0 - - - - - - -
27/07:00am 20.1 S 6 12 1019.7 - 0.0 - - - - - - -
27/06:30am 20.5 S 2 4 1019.0 - 0.0 - - - - - - -
27/06:00am 20.3 CALM 0 1 1018.7 - 0.0 - - - - - - -
27/05:30am 20.3 S 1 3 1018.2 - 0.0 - - - - - - -
27/05:00am 20.4 S 2 3 1018.0 - 0.0 - - - - - - -
27/04:30am 20.3 S 2 4 1017.7 - 0.0 - - - - - - -
27/04:00am 20.4 CALM 0 2 1017.4 - 0.0 - - - - - - -
27/03:30am 20.3 CALM 0 2 1017.3 - 0.0 - - - - - - -
27/03:00am 20.5 S 2 4 1017.2 - 0.0 - - - - - - -
27/02:30am 20.5 S 2 4 1017.2 - 0.0 - - - - - - -
27/02:00am 20.3 CALM 0 0 1017.4 - 0.0 - - - - - - -
27/01:30am 20.5 S 2 4 1017.7 - 0.0 - - - - - - -
27/01:00am 20.9 S 1 3 1017.8 - 0.0 - - - - - - -
27/12:30am 20.6 CALM 0 1 1017.9 - 0.0 - - - - - - -
27/12:00am 20.1 CALM 0 0 1018.2 - 0.0 - - - - - - -
 
Date/Time
EDT
Temp

°C
Wind Pressure Rain
since 9am
mm
Weather Cloud Vis
km
Sea
Height
m
Swell
Dir
 
Speed
knots
Gust
knots
hPa Trend Height
m
Period
s
Dir
26/11:30pm 20.1 SSW 1 2 1018.2 - 0.0 - - - - - - -
26/11:00pm 19.8 SW 1 4 1017.9 - 0.0 - - - - - - -
26/10:30pm 19.9 SW 2 3 1017.8 - 0.0 - - - - - - -
26/10:00pm 19.9 CALM 0 0 1017.5 - 0.0 - - - - - - -
26/09:30pm 20.1 S 1 2 1017.3 - 0.0 - - - - - - -
26/09:00pm 20.6 CALM 0 0 1016.8 - 0.0 - - - - - - -
26/08:30pm 21.4 E 2 4 1016.5 - 0.0 - - - - - - -
26/08:00pm 21.6 ESE 5 8 1016.4 - 0.0 - - - - - - -
26/07:30pm 21.6 E 5 9 1016.1 - 0.0 - - - - - - -
26/07:00pm 21.9 E 6 10 1015.9 - 0.0 - - - - - - -
26/06:30pm 22.5 ESE 9 13 1015.5 - 0.0 - - - - - - -
26/06:00pm 22.7 E 5 9 1015.3 - 0.0 - - - - - - -
26/05:30pm 22.9 ESE 8 13 1015.3 - 0.0 - - - - - - -
26/05:00pm 23.2 E 6 12 1015.2 - 0.0 - - - - - - -
26/04:30pm 24.2 E 6 12 1015.3 - 0.0 - - - - - - -
26/04:00pm 22.6 E 9 15 1015.9 - 0.0 - - - - - - -
26/03:30pm 23.1 E 8 13 1016.3 - 0.0 - - - - - - -
26/03:00pm 23.1 ESE 4 9 1016.7 - 0.0 - - - - - - -
26/02:30pm 23.5 E 3 6 1016.8 - 0.0 - - - - - - -
26/02:00pm 22.3 E 4 7 1017.3 - 0.0 - - - - - - -
26/01:30pm 22.1 E 3 8 1017.4 - 0.0 - - - - - - -
26/01:00pm 22.0 E 4 8 1017.8 - 0.0 - - - - - - -
26/12:30pm 22.1 E 5 11 1018.1 - 0.0 - - - - - - -

Other Formats:

Comma delimited format used in spreadsheet applications
http://www.bom.gov.au/fwo/IDN60701/IDN60701.95767.axf

JavaScript Object Notation format (JSON) in row-major order
http://www.bom.gov.au/fwo/IDN60701/IDN60701.95767.json